Time;durP1;ratioP1;P1;durP2;ratioP2;P2;SDS_P1;SDS_P2;PMS_P1;PMS_P2;Temp;Humidity;BMP_temperature;BMP_pressure;BME280_temperature;BME280_humidity;BME280_pressure;Samples;Min_cycle;Max_cycle;Signal;HPM_P1;HPM_P2
2023/06/27 00:01:39;;;;;;;0.10;0.10;;;;;;;;;;5043696;28;20139;-77
2023/06/27 00:04:06;;;;;;;0.10;0.10;;;;;;;;;;5042809;28;20049;-77
2023/06/27 00:06:37;;;;;;;0.10;0.10;;;;;;;;;;5044320;28;20080;-76
2023/06/27 00:09:05;;;;;;;;;;;;;;;;;;5046311;28;20045;-77
2023/06/27 00:11:32;;;;;;;0.10;0.10;;;;;;;;;;5040497;28;47630;-77
2023/06/27 00:13:58;;;;;;;0.10;0.10;;;;;;;;;;5036420;28;20054;-74
2023/06/27 00:16:32;;;;;;;0.10;0.10;;;;;;;;;;5040812;28;20664;-77
2023/06/27 00:19:04;;;;;;;0.30;0.30;;;;;;;;;;5040835;28;20057;-74
2023/06/27 00:21:31;;;;;;;0.10;0.10;;;;;;;;;;5031414;28;20050;-77
2023/06/27 00:23:58;;;;;;;0.10;0.10;;;;;;;;;;5025028;28;20680;-77
2023/06/27 00:26:27;;;;;;;0.10;0.10;;;;;;;;;;5036318;28;20077;-75
2023/06/27 00:28:54;;;;;;;0.10;0.10;;;;;;;;;;5043570;28;20081;-75
2023/06/27 00:31:21;;;;;;;0.10;0.10;;;;;;;;;;5044591;28;20468;-76
2023/06/27 00:33:47;;;;;;;0.10;0.10;;;;;;;;;;5046186;28;20053;-75
2023/06/27 00:36:14;;;;;;;0.15;0.15;;;;;;;;;;5026676;28;20128;-77
2023/06/27 00:38:41;;;;;;;0.10;0.10;;;;;;;;;;5027099;28;20058;-76
2023/06/27 00:41:08;;;;;;;0.10;0.10;;;;;;;;;;5029912;28;20062;-75
2023/06/27 00:43:34;;;;;;;0.50;0.50;;;;;;;;;;5045036;28;20081;-77
2023/06/27 00:46:02;;;;;;;0.10;0.10;;;;;;;;;;5043815;28;20060;-76
2023/06/27 00:48:29;;;;;;;0.10;0.10;;;;;;;;;;5045577;28;20103;-77
2023/06/27 00:50:56;;;;;;;0.10;0.10;;;;;;;;;;5038929;28;20053;-77
2023/06/27 00:53:23;;;;;;;0.10;0.10;;;;;;;;;;5035699;28;20045;-77
2023/06/27 00:55:49;;;;;;;0.10;0.10;;;;;;;;;;5044442;28;20551;-77
2023/06/27 00:58:17;;;;;;;0.25;0.25;;;;;;;;;;5041616;28;20678;-77
2023/06/27 01:00:43;;;;;;;0.10;0.10;;;;;;;;;;5028344;28;20050;-75
2023/06/27 01:03:10;;;;;;;0.28;0.28;;;;;;;;;;5023589;28;20057;-77
2023/06/27 01:05:36;;;;;;;0.10;0.10;;;;;;;;;;5024302;28;20060;-76
2023/06/27 01:08:03;;;;;;;0.10;0.10;;;;;;;;;;5024375;28;20050;-77
2023/06/27 01:10:36;;;;;;;0.10;0.10;;;;;;;;;;5040251;28;20053;-77
2023/06/27 01:13:15;;;;;;;0.43;0.28;;;;;;;;;;5043593;28;20067;-75
2023/06/27 01:15:42;;;;;;;0.10;0.10;;;;;;;;;;5025595;28;20058;-77
2023/06/27 01:18:11;;;;;;;0.10;0.10;;;;;;;;;;5039212;28;20096;-75
2023/06/27 01:20:39;;;;;;;0.10;0.10;;;;;;;;;;5032564;28;20060;-75
2023/06/27 01:23:09;;;;;;;0.10;0.10;;;;;;;;;;5027484;28;20476;-77
2023/06/27 01:25:37;;;;;;;0.10;0.10;;;;;;;;;;5041254;28;20060;-77
2023/06/27 01:28:05;;;;;;;0.10;0.10;;;;;;;;;;5035260;28;20461;-76
2023/06/27 01:30:34;;;;;;;0.10;0.10;;;;;;;;;;5035196;28;20049;-76
2023/06/27 01:33:23;;;;;;;0.10;0.10;;;;;;;;;;5025934;28;20085;-75
2023/06/27 01:35:54;;;;;;;0.10;0.10;;;;;;;;;;5026290;28;20045;-77
2023/06/27 01:38:20;;;;;;;;;;;;;;;;;;5040482;28;20132;-77
2023/06/27 01:40:48;;;;;;;0.20;0.20;;;;;;;;;;5036345;28;45793;-76
2023/06/27 01:43:16;;;;;;;0.10;0.10;;;;;;;;;;5038495;28;20053;-76
2023/06/27 01:45:43;;;;;;;0.40;0.40;;;;;;;;;;5030786;28;20080;-77
2023/06/27 01:48:10;;;;;;;0.10;0.10;;;;;;;;;;5031091;28;20522;-75
2023/06/27 01:50:37;;;;;;;0.10;0.10;;;;;;;;;;5044714;28;20135;-76
2023/06/27 01:53:03;;;;;;;0.10;0.10;;;;;;;;;;5039278;28;20087;-75
2023/06/27 01:55:30;;;;;;;0.10;0.10;;;;;;;;;;5045205;28;20170;-76
2023/06/27 01:57:57;;;;;;;0.10;0.10;;;;;;;;;;5029724;28;20061;-77
2023/06/27 02:00:24;;;;;;;0.32;0.30;;;;;;;;;;5023238;28;20971;-77
2023/06/27 02:02:50;;;;;;;0.10;0.10;;;;;;;;;;5030589;28;20053;-77
2023/06/27 02:05:17;;;;;;;0.28;0.28;;;;;;;;;;5030115;28;20662;-77
2023/06/27 02:07:43;;;;;;;0.10;0.10;;;;;;;;;;5033116;28;20530;-77
2023/06/27 02:10:10;;;;;;;0.10;0.10;;;;;;;;;;5039251;28;20087;-75
2023/06/27 02:12:36;;;;;;;0.10;0.10;;;;;;;;;;5043311;28;20067;-77
2023/06/27 02:15:04;;;;;;;0.10;0.10;;;;;;;;;;5024267;28;20054;-77
2023/06/27 02:17:31;;;;;;;0.10;0.10;;;;;;;;;;5022788;28;20061;-75
2023/06/27 02:19:58;;;;;;;0.10;0.10;;;;;;;;;;5023463;28;20061;-77
2023/06/27 02:22:24;;;;;;;0.15;0.15;;;;;;;;;;5031512;28;20053;-76
2023/06/27 02:24:51;;;;;;;0.10;0.10;;;;;;;;;;5038112;28;20119;-76
2023/06/27 02:27:17;;;;;;;0.10;0.10;;;;;;;;;;5042956;28;20080;-76
2023/06/27 02:29:43;;;;;;;0.10;0.10;;;;;;;;;;5043721;28;20517;-77
2023/06/27 02:32:10;;;;;;;0.10;0.10;;;;;;;;;;5041742;28;20117;-76
2023/06/27 02:34:36;;;;;;;0.32;0.20;;;;;;;;;;5593805;22;22465;-76
2023/06/27 02:37:03;;;;;;;0.20;0.20;;;;;;;;;;5016591;28;20103;-73
2023/06/27 02:39:30;;;;;;;0.10;0.10;;;;;;;;;;5022036;28;20548;-75
2023/06/27 02:41:56;;;;;;;0.10;0.10;;;;;;;;;;5021914;28;20512;-75
2023/06/27 02:44:22;;;;;;;0.10;0.10;;;;;;;;;;5012599;28;20062;-75
2023/06/27 02:46:49;;;;;;;0.10;0.10;;;;;;;;;;5001477;28;20057;-75
2023/06/27 02:49:15;;;;;;;0.20;0.17;;;;;;;;;;5015688;28;20069;-73
2023/06/27 02:51:42;;;;;;;0.10;0.10;;;;;;;;;;5005047;28;20058;-76
2023/06/27 02:54:09;;;;;;;0.10;0.10;;;;;;;;;;5014570;28;20544;-75
2023/06/27 02:56:38;;;;;;;0.20;0.20;;;;;;;;;;5026197;28;20050;-73
2023/06/27 02:59:04;;;;;;;0.10;0.10;;;;;;;;;;5009667;28;20051;-73
2023/06/27 03:01:31;;;;;;;0.20;0.13;;;;;;;;;;5015908;28;20551;-75
2023/06/27 03:03:58;;;;;;;0.10;0.10;;;;;;;;;;5025668;28;20093;-75
2023/06/27 03:06:44;;;;;;;0.10;0.10;;;;;;;;;;5024599;28;20549;-75
2023/06/27 03:09:11;;;;;;;0.10;0.10;;;;;;;;;;5025861;28;20088;-75
2023/06/27 03:11:37;;;;;;;0.10;0.10;;;;;;;;;;5014961;28;20050;-75
2023/06/27 03:14:03;;;;;;;0.20;0.20;;;;;;;;;;5020558;28;20552;-76
2023/06/27 03:16:30;;;;;;;0.20;0.20;;;;;;;;;;5024134;28;20116;-76
2023/06/27 03:18:56;;;;;;;0.10;0.10;;;;;;;;;;5018329;28;20054;-76
2023/06/27 03:21:26;;;;;;;0.10;0.10;;;;;;;;;;5025382;28;20231;-78
2023/06/27 03:23:52;;;;;;;0.10;0.10;;;;;;;;;;5026736;28;20061;-76
2023/06/27 03:26:23;;;;;;;0.10;0.10;;;;;;;;;;5025965;28;20058;-77
2023/06/27 03:28:49;;;;;;;0.10;0.10;;;;;;;;;;5013968;28;20085;-76
2023/06/27 03:31:16;;;;;;;0.35;0.30;;;;;;;;;;5016985;28;20093;-76
2023/06/27 03:33:42;;;;;;;0.10;0.10;;;;;;;;;;5006169;28;20053;-76
2023/06/27 03:36:09;;;;;;;0.10;0.10;;;;;;;;;;5012640;28;20049;-76
2023/06/27 03:38:37;;;;;;;0.20;0.20;;;;;;;;;;5015124;28;20072;-75
2023/06/27 03:41:04;;;;;;;0.30;0.30;;;;;;;;;;5024521;28;20129;-76
2023/06/27 03:43:30;;;;;;;0.20;0.20;;;;;;;;;;5026565;28;20054;-76
2023/06/27 03:45:56;;;;;;;0.10;0.10;;;;;;;;;;5026201;28;20054;-73
2023/06/27 03:48:23;;;;;;;0.10;0.10;;;;;;;;;;5020002;28;20537;-75
2023/06/27 03:50:49;;;;;;;0.10;0.10;;;;;;;;;;5013673;28;20090;-76
2023/06/27 03:53:16;;;;;;;0.10;0.10;;;;;;;;;;5011991;28;20057;-76
2023/06/27 03:55:43;;;;;;;0.57;0.57;;;;;;;;;;5007421;28;20101;-76
2023/06/27 03:58:09;;;;;;;0.10;0.10;;;;;;;;;;5009573;28;20062;-74
2023/06/27 04:00:36;;;;;;;1.65;0.95;;;;;;;;;;5023593;28;20050;-75
2023/06/27 04:03:02;;;;;;;0.10;0.10;;;;;;;;;;5024623;28;20336;-76
2023/06/27 04:05:29;;;;;;;0.13;0.13;;;;;;;;;;5015900;28;20084;-76
2023/06/27 04:07:55;;;;;;;0.13;0.13;;;;;;;;;;5006577;28;20537;-76
2023/06/27 04:10:22;;;;;;;0.10;0.10;;;;;;;;;;5016364;28;20112;-74
2023/06/27 04:12:48;;;;;;;0.10;0.10;;;;;;;;;;5025251;28;20137;-76
2023/06/27 04:15:15;;;;;;;0.10;0.10;;;;;;;;;;5022040;28;20050;-76
2023/06/27 04:17:41;;;;;;;0.10;0.10;;;;;;;;;;5023904;28;20158;-76
2023/06/27 04:20:08;;;;;;;0.10;0.10;;;;;;;;;;5024732;28;20165;-74
2023/06/27 04:22:35;;;;;;;0.15;0.15;;;;;;;;;;5024800;28;20160;-75
2023/06/27 04:25:01;;;;;;;0.10;0.10;;;;;;;;;;5022750;28;20086;-75
2023/06/27 04:27:27;;;;;;;0.10;0.10;;;;;;;;;;5021066;28;20450;-76
2023/06/27 04:29:54;;;;;;;0.10;0.10;;;;;;;;;;5024695;28;20140;-76
2023/06/27 04:32:20;;;;;;;0.10;0.10;;;;;;;;;;5024532;28;20544;-76
2023/06/27 04:34:47;;;;;;;0.20;0.20;;;;;;;;;;5021308;28;20171;-75
2023/06/27 04:37:18;;;;;;;0.10;0.10;;;;;;;;;;5006472;28;20058;-75
2023/06/27 04:39:44;;;;;;;;;;;;;;;;;;5024848;28;20461;-76
2023/06/27 04:42:11;;;;;;;0.20;0.20;;;;;;;;;;5007870;28;41485;-76
2023/06/27 04:44:37;;;;;;;0.10;0.10;;;;;;;;;;5004309;28;20093;-77
2023/06/27 04:47:04;;;;;;;0.10;0.10;;;;;;;;;;5006631;28;20097;-74
2023/06/27 04:49:30;;;;;;;0.17;0.17;;;;;;;;;;5005651;28;20058;-76
2023/06/27 04:51:57;;;;;;;0.25;0.25;;;;;;;;;;5003249;28;20659;-76
2023/06/27 04:57:04;;;;;;;0.10;0.10;;;;;;;;;;5437774;23;20050;-75
2023/06/27 04:59:38;;;;;;;0.10;0.10;;;;;;;;;;5020696;28;20397;-75
2023/06/27 05:05:16;;;;;;;0.10;0.10;;;;;;;;;;5004138;28;20055;-77
2023/06/27 05:07:42;;;;;;;0.10;0.10;;;;;;;;;;5002865;28;20131;-76
2023/06/27 05:10:09;;;;;;;0.10;0.10;;;;;;;;;;4989768;28;20561;-76
2023/06/27 05:12:36;;;;;;;0.10;0.10;;;;;;;;;;4997486;28;20050;-77
2023/06/27 05:15:04;;;;;;;0.28;0.25;;;;;;;;;;4992136;28;20065;-76
2023/06/27 05:17:30;;;;;;;0.10;0.10;;;;;;;;;;4997939;28;20069;-77
2023/06/27 05:19:57;;;;;;;0.10;0.10;;;;;;;;;;5000783;28;20055;-76
2023/06/27 05:22:24;;;;;;;0.10;0.10;;;;;;;;;;5002661;28;20054;-76
2023/06/27 05:24:50;;;;;;;0.10;0.10;;;;;;;;;;5003528;28;20054;-76
2023/06/27 05:27:16;;;;;;;0.10;0.10;;;;;;;;;;5001837;28;20465;-77
2023/06/27 05:29:43;;;;;;;0.10;0.10;;;;;;;;;;4991277;28;20054;-77
2023/06/27 05:34:51;;;;;;;0.20;0.20;;;;;;;;;;5655118;22;20046;-77
2023/06/27 05:37:18;;;;;;;0.40;0.40;;;;;;;;;;5031329;28;20045;-76
2023/06/27 05:39:44;;;;;;;0.10;0.10;;;;;;;;;;5025006;28;20089;-75
2023/06/27 05:42:11;;;;;;;0.10;0.10;;;;;;;;;;5038541;28;20106;-76
2023/06/27 05:44:37;;;;;;;0.35;0.35;;;;;;;;;;5036154;28;20662;-77
2023/06/27 05:47:04;;;;;;;0.10;0.10;;;;;;;;;;5035301;28;20528;-75
2023/06/27 05:49:31;;;;;;;5.07;0.63;;;;;;;;;;5012009;28;20065;-76
2023/06/27 05:51:57;;;;;;;0.60;0.45;;;;;;;;;;5024832;28;20064;-76
2023/06/27 05:54:24;;;;;;;0.10;0.10;;;;;;;;;;5031352;28;20057;-75
2023/06/27 05:59:31;;;;;;;0.10;0.10;;;;;;;;;;5227299;22;20524;-76
2023/06/27 06:01:58;;;;;;;0.95;0.30;;;;;;;;;;5030201;28;20104;-77
2023/06/27 06:04:24;;;;;;;0.10;0.10;;;;;;;;;;5029824;28;20057;-76
2023/06/27 06:06:51;;;;;;;0.10;0.10;;;;;;;;;;5027174;28;20053;-76
2023/06/27 06:09:18;;;;;;;1.75;0.30;;;;;;;;;;5019938;28;20058;-75
2023/06/27 06:11:44;;;;;;;0.20;0.20;;;;;;;;;;5022484;28;20077;-77
2023/06/27 06:14:10;;;;;;;0.43;0.43;;;;;;;;;;5020081;28;20104;-77
2023/06/27 06:16:37;;;;;;;0.30;0.30;;;;;;;;;;5020253;28;20144;-76
2023/06/27 06:19:03;;;;;;;0.35;0.30;;;;;;;;;;5021545;28;20117;-76
2023/06/27 06:21:30;;;;;;;0.43;0.13;;;;;;;;;;5014645;28;20516;-76
2023/06/27 06:23:57;;;;;;;2.72;0.82;;;;;;;;;;5003325;28;20544;-76
2023/06/27 06:26:24;;;;;;;0.20;0.20;;;;;;;;;;5020786;28;20054;-76
2023/06/27 06:28:51;;;;;;;0.38;0.20;;;;;;;;;;5024115;28;20069;-76
2023/06/27 06:31:19;;;;;;;0.10;0.10;;;;;;;;;;5022905;28;20116;-76
2023/06/27 06:33:45;;;;;;;0.10;0.10;;;;;;;;;;5020801;28;20057;-76
2023/06/27 06:36:12;;;;;;;0.20;0.20;;;;;;;;;;5026550;28;20054;-76
2023/06/27 06:38:39;;;;;;;4.78;0.40;;;;;;;;;;5026491;28;20513;-76
2023/06/27 06:41:06;;;;;;;0.20;0.20;;;;;;;;;;5023970;28;20056;-76
2023/06/27 06:43:32;;;;;;;0.40;0.40;;;;;;;;;;5021423;28;20503;-77
2023/06/27 06:45:59;;;;;;;0.20;0.20;;;;;;;;;;5008345;28;20430;-76
2023/06/27 06:48:25;;;;;;;0.10;0.10;;;;;;;;;;5026204;28;20050;-76
2023/06/27 06:50:55;;;;;;;4.78;0.30;;;;;;;;;;5025863;28;20580;-76
2023/06/27 06:53:21;;;;;;;0.22;0.22;;;;;;;;;;5009029;28;20136;-76
2023/06/27 06:55:48;;;;;;;0.60;0.40;;;;;;;;;;5025055;28;20108;-76
2023/06/27 06:58:14;;;;;;;0.20;0.20;;;;;;;;;;5025383;28;20061;-76
2023/06/27 07:00:41;;;;;;;1.08;0.30;;;;;;;;;;5021179;28;20054;-77
2023/06/27 07:03:10;;;;;;;2.08;0.63;;;;;;;;;;5024259;28;20053;-76
2023/06/27 07:05:37;;;;;;;0.10;0.10;;;;;;;;;;5017385;28;20057;-77
2023/06/27 07:08:05;;;;;;;0.17;0.17;;;;;;;;;;5022041;28;20141;-76
2023/06/27 07:10:32;;;;;;;0.57;0.55;;;;;;;;;;5011670;28;20057;-77
2023/06/27 07:12:59;;;;;;;0.20;0.20;;;;;;;;;;5026121;28;20521;-76
2023/06/27 07:15:26;;;;;;;0.13;0.13;;;;;;;;;;5023975;28;20054;-74
2023/06/27 07:17:53;;;;;;;0.30;0.30;;;;;;;;;;5021353;28;20061;-73
2023/06/27 07:20:20;;;;;;;0.30;0.30;;;;;;;;;;5006684;28;20090;-74
2023/06/27 07:22:46;;;;;;;0.17;0.17;;;;;;;;;;5007205;28;20055;-75
2023/06/27 07:25:13;;;;;;;0.10;0.10;;;;;;;;;;5004472;28;20054;-73
2023/06/27 07:27:39;;;;;;;0.20;0.20;;;;;;;;;;5024197;28;20065;-74
2023/06/27 07:30:06;;;;;;;0.10;0.10;;;;;;;;;;4997216;28;20081;-75
2023/06/27 07:32:32;;;;;;;0.10;0.10;;;;;;;;;;5015057;28;20058;-75
2023/06/27 07:34:59;;;;;;;0.40;0.40;;;;;;;;;;5017655;28;20062;-75
2023/06/27 07:37:25;;;;;;;0.20;0.20;;;;;;;;;;5019151;28;20065;-74
2023/06/27 07:39:52;;;;;;;0.90;0.30;;;;;;;;;;5020210;28;20133;-74
2023/06/27 07:42:18;;;;;;;0.20;0.20;;;;;;;;;;5011471;28;20077;-74
2023/06/27 07:44:45;;;;;;;0.20;0.20;;;;;;;;;;5020407;28;20695;-74
2023/06/27 07:47:11;;;;;;;0.10;0.10;;;;;;;;;;5024728;28;20054;-74
2023/06/27 07:49:37;;;;;;;0.20;0.20;;;;;;;;;;5025599;28;20078;-74
2023/06/27 07:52:07;;;;;;;0.22;0.22;;;;;;;;;;5024831;28;20058;-74
2023/06/27 07:54:34;;;;;;;0.40;0.30;;;;;;;;;;5005365;28;20147;-74
2023/06/27 07:57:00;;;;;;;0.20;0.20;;;;;;;;;;5016199;28;20137;-74
2023/06/27 07:59:27;;;;;;;0.22;0.20;;;;;;;;;;5005591;28;20876;-74
2023/06/27 08:01:53;;;;;;;0.20;0.20;;;;;;;;;;5019427;28;20068;-74
2023/06/27 08:04:20;;;;;;;0.32;0.32;;;;;;;;;;5024249;28;20058;-74
2023/06/27 08:06:47;;;;;;;0.20;0.20;;;;;;;;;;5024626;28;20046;-73
2023/06/27 08:09:14;;;;;;;0.20;0.20;;;;;;;;;;5025417;28;20057;-74
2023/06/27 08:11:40;;;;;;;0.30;0.30;;;;;;;;;;5013782;28;20058;-74
2023/06/27 08:14:06;;;;;;;0.15;0.15;;;;;;;;;;5008775;28;20085;-74
2023/06/27 08:16:33;;;;;;;0.20;0.20;;;;;;;;;;5015573;28;20116;-74
2023/06/27 08:18:59;;;;;;;0.17;0.17;;;;;;;;;;5017193;28;20112;-74
2023/06/27 08:21:26;;;;;;;0.20;0.20;;;;;;;;;;5023471;28;20061;-73
2023/06/27 08:23:52;;;;;;;0.20;0.20;;;;;;;;;;5578493;22;20017;-73
2023/06/27 08:26:19;;;;;;;0.20;0.20;;;;;;;;;;5016916;28;20046;-73
2023/06/27 08:28:45;;;;;;;0.52;0.22;;;;;;;;;;5019029;28;20051;-73
2023/06/27 08:31:12;;;;;;;0.20;0.20;;;;;;;;;;5009018;28;20398;-73
2023/06/27 08:33:39;;;;;;;0.20;0.20;;;;;;;;;;5007166;28;20073;-73
2023/06/27 08:36:06;;;;;;;2.08;0.90;;;;;;;;;;5015153;28;20054;-73
2023/06/27 08:38:32;;;;;;;0.20;0.20;;;;;;;;;;5010369;28;20593;-73
2023/06/27 08:41:00;;;;;;;0.13;0.13;;;;;;;;;;5022295;28;20061;-73
2023/06/27 08:43:26;;;;;;;0.15;0.15;;;;;;;;;;5021954;28;20172;-73
2023/06/27 08:45:59;;;;;;;0.20;0.20;;;;;;;;;;5020773;28;20787;-73
2023/06/27 08:48:26;;;;;;;0.20;0.20;;;;;;;;;;5019139;28;20104;-73
2023/06/27 08:50:53;;;;;;;0.35;0.30;;;;;;;;;;5019191;28;20058;-75
2023/06/27 08:53:25;;;;;;;0.17;0.17;;;;;;;;;;5013665;28;20911;-74
2023/06/27 08:55:51;;;;;;;0.20;0.20;;;;;;;;;;5012905;28;20065;-74
2023/06/27 08:58:20;;;;;;;0.20;0.20;;;;;;;;;;5017108;28;20104;-74
2023/06/27 09:00:47;;;;;;;0.20;0.20;;;;;;;;;;5017503;28;20065;-76
2023/06/27 09:03:13;;;;;;;0.13;0.13;;;;;;;;;;5007533;28;20145;-74
2023/06/27 09:05:40;;;;;;;0.25;0.22;;;;;;;;;;5018422;28;20129;-74
2023/06/27 09:08:07;;;;;;;0.88;0.50;;;;;;;;;;5021874;28;20050;-73
2023/06/27 09:10:34;;;;;;;0.20;0.20;;;;;;;;;;5015341;28;20085;-74
2023/06/27 09:18:16;;;;;;;0.20;0.20;;;;;;;;;;4995232;22;20510;-76
2023/06/27 09:20:44;;;;;;;0.20;0.20;;;;;;;;;;4974752;28;20051;-75
2023/06/27 09:23:10;;;;;;;0.15;0.15;;;;;;;;;;4984524;28;20082;-74
2023/06/27 09:25:37;;;;;;;0.20;0.20;;;;;;;;;;4975194;28;20089;-75
2023/06/27 09:28:15;;;;;;;0.20;0.20;;;;;;;;;;4981104;28;20057;-75
2023/06/27 09:30:53;;;;;;;0.20;0.20;;;;;;;;;;4980151;28;20106;-75
2023/06/27 09:33:20;;;;;;;0.10;0.10;;;;;;;;;;4980808;28;20051;-74
2023/06/27 09:35:52;;;;;;;1.08;0.30;;;;;;;;;;4985832;28;20054;-74
2023/06/27 09:38:30;;;;;;;0.50;0.50;;;;;;;;;;4984426;28;20055;-74
2023/06/27 09:41:03;;;;;;;0.20;0.20;;;;;;;;;;4983370;28;20055;-74
2023/06/27 09:43:35;;;;;;;0.20;0.20;;;;;;;;;;4980655;28;20061;-73
2023/06/27 09:46:03;;;;;;;0.20;0.20;;;;;;;;;;4977268;28;20055;-74
2023/06/27 09:48:30;;;;;;;0.20;0.20;;;;;;;;;;4983521;28;20047;-74
2023/06/27 09:51:00;;;;;;;0.10;0.10;;;;;;;;;;4996644;28;20110;-75
2023/06/27 09:53:30;;;;;;;4.28;0.45;;;;;;;;;;4981998;28;20247;-72
2023/06/27 09:55:59;;;;;;;0.10;0.10;;;;;;;;;;4981304;28;20055;-72
2023/06/27 09:58:29;;;;;;;0.20;0.20;;;;;;;;;;4979366;28;20054;-75
2023/06/27 10:01:03;;;;;;;0.20;0.20;;;;;;;;;;4979141;28;20574;-74
2023/06/27 10:03:30;;;;;;;0.25;0.25;;;;;;;;;;4972894;28;20055;-74
2023/06/27 10:05:56;;;;;;;0.20;0.20;;;;;;;;;;4985382;28;20987;-74
2023/06/27 10:08:43;;;;;;;0.20;0.20;;;;;;;;;;4981715;28;20609;-74
2023/06/27 10:11:09;;;;;;;0.20;0.20;;;;;;;;;;4985236;28;20125;-74
2023/06/27 10:13:59;;;;;;;0.10;0.10;;;;;;;;;;4980809;28;20061;-73
2023/06/27 10:16:26;;;;;;;0.20;0.20;;;;;;;;;;4979619;28;20058;-75
2023/06/27 10:18:53;;;;;;;0.20;0.20;;;;;;;;;;4972747;28;20086;-75
2023/06/27 10:21:19;;;;;;;0.20;0.20;;;;;;;;;;4984292;28;20404;-74
2023/06/27 10:23:48;;;;;;;0.43;0.30;;;;;;;;;;4972551;28;20055;-74
2023/06/27 10:26:17;;;;;;;0.20;0.20;;;;;;;;;;4980974;28;20589;-74
2023/06/27 10:28:48;;;;;;;0.20;0.20;;;;;;;;;;4981595;28;20056;-73
2023/06/27 10:31:34;;;;;;;0.20;0.20;;;;;;;;;;4983289;28;20082;-73
2023/06/27 10:34:01;;;;;;;0.20;0.20;;;;;;;;;;4984615;28;20062;-73
2023/06/27 10:36:47;;;;;;;0.20;0.20;;;;;;;;;;4978408;28;20263;-73
2023/06/27 10:39:30;;;;;;;1.45;0.40;;;;;;;;;;4979199;28;20065;-73
2023/06/27 10:41:59;;;;;;;0.20;0.20;;;;;;;;;;4984516;28;20072;-73
2023/06/27 10:44:27;;;;;;;0.20;0.20;;;;;;;;;;4985005;28;21167;-73
2023/06/27 10:47:23;;;;;;;0.20;0.20;;;;;;;;;;4983118;28;20057;-74
2023/06/27 10:49:53;;;;;;;0.30;0.30;;;;;;;;;;4966131;28;20602;-73
2023/06/27 10:52:23;;;;;;;0.20;0.20;;;;;;;;;;4978250;28;20256;-73
2023/06/27 10:54:49;;;;;;;;;;;;;;;;;;4983615;28;20043;-73
2023/06/27 10:57:16;;;;;;;0.20;0.20;;;;;;;;;;4978892;28;43616;-75
2023/06/27 10:59:45;;;;;;;0.20;0.20;;;;;;;;;;4980686;28;20589;-73
2023/06/27 11:02:14;;;;;;;0.20;0.20;;;;;;;;;;4984276;28;20047;-73
2023/06/27 11:04:43;;;;;;;0.20;0.20;;;;;;;;;;4985349;28;20116;-73
2023/06/27 11:07:17;;;;;;;0.20;0.20;;;;;;;;;;4982824;28;20051;-73
2023/06/27 11:09:52;;;;;;;0.20;0.20;;;;;;;;;;4977826;28;20055;-73
2023/06/27 11:12:19;;;;;;;0.20;0.20;;;;;;;;;;4980809;28;20060;-73
2023/06/27 11:14:46;;;;;;;0.20;0.20;;;;;;;;;;4985413;28;20082;-75
2023/06/27 11:17:12;;;;;;;0.20;0.20;;;;;;;;;;4987424;28;20098;-75
2023/06/27 11:19:42;;;;;;;0.30;0.30;;;;;;;;;;5186662;23;20054;-94
2023/06/27 11:22:10;;;;;;;0.20;0.20;;;;;;;;;;4982560;28;20053;-93
2023/06/27 11:24:39;;;;;;;0.20;0.20;;;;;;;;;;4988782;28;20545;-93
2023/06/27 11:27:07;;;;;;;0.20;0.20;;;;;;;;;;4987515;28;20631;-93
2023/06/27 11:30:03;;;;;;;0.35;0.35;;;;;;;;;;4978478;28;20225;-94
2023/06/27 11:32:30;;;;;;;0.30;0.30;;;;;;;;;;4972324;28;20058;-94
2023/06/27 11:34:58;;;;;;;0.28;0.28;;;;;;;;;;4999290;28;20057;-95
2023/06/27 11:37:28;;;;;;;0.55;0.55;;;;;;;;;;5003808;28;20057;-94
2023/06/27 11:40:06;;;;;;;0.20;0.20;;;;;;;;;;4989619;28;20152;-95
2023/06/27 11:42:36;;;;;;;0.57;0.57;;;;;;;;;;4988521;28;20715;-95
2023/06/27 11:45:16;;;;;;;0.20;0.20;;;;;;;;;;4996897;28;20733;-94
2023/06/27 11:48:12;;;;;;;0.20;0.20;;;;;;;;;;4981948;28;20127;-95
2023/06/27 11:50:55;;;;;;;0.50;0.40;;;;;;;;;;4963750;28;20062;-95
2023/06/27 11:53:33;;;;;;;0.20;0.20;;;;;;;;;;4971307;28;20592;-94
2023/06/27 11:56:21;;;;;;;0.20;0.20;;;;;;;;;;5027281;22;20049;-74
2023/06/27 11:58:50;;;;;;;0.10;0.10;;;;;;;;;;5024627;28;20600;-74
2023/06/27 12:01:17;;;;;;;0.20;0.20;;;;;;;;;;5011645;28;20104;-74
2023/06/27 12:03:48;;;;;;;0.20;0.20;;;;;;;;;;5017515;28;20514;-74
2023/06/27 12:06:24;;;;;;;0.20;0.20;;;;;;;;;;5023037;28;20091;-74
2023/06/27 12:08:52;;;;;;;0.20;0.20;;;;;;;;;;5021798;28;20065;-74
2023/06/27 12:11:24;;;;;;;0.20;0.20;;;;;;;;;;5020004;28;20052;-74
2023/06/27 12:13:51;;;;;;;0.30;0.30;;;;;;;;;;5021760;28;20206;-74
2023/06/27 12:16:25;;;;;;;0.30;0.30;;;;;;;;;;5023549;28;20124;-74
2023/06/27 12:18:52;;;;;;;0.20;0.20;;;;;;;;;;5010250;28;20058;-74
2023/06/27 12:21:18;;;;;;;0.20;0.20;;;;;;;;;;5021652;28;20061;-73
2023/06/27 12:23:45;;;;;;;0.20;0.20;;;;;;;;;;5020800;28;20054;-73
2023/06/27 12:26:11;;;;;;;0.25;0.25;;;;;;;;;;5023473;28;20064;-73
2023/06/27 12:28:53;;;;;;;0.20;0.20;;;;;;;;;;5021347;28;20103;-73
2023/06/27 12:31:20;;;;;;;0.20;0.20;;;;;;;;;;5020162;28;20526;-74
2023/06/27 12:33:46;;;;;;;0.20;0.20;;;;;;;;;;5017425;28;20445;-74
2023/06/27 12:38:49;;;;;;;0.20;0.20;;;;;;;;;;5111709;23;20508;-72
2023/06/27 12:41:18;;;;;;;0.20;0.20;;;;;;;;;;5016534;28;20108;-71
2023/06/27 12:43:46;;;;;;;0.40;0.40;;;;;;;;;;5015137;28;20101;-71
2023/06/27 12:46:13;;;;;;;0.20;0.20;;;;;;;;;;5018768;28;20054;-71
2023/06/27 12:48:40;;;;;;;0.20;0.20;;;;;;;;;;5021424;28;20493;-71
2023/06/27 12:51:07;;;;;;;0.20;0.20;;;;;;;;;;5017954;28;20053;-72
2023/06/27 12:53:34;;;;;;;0.20;0.20;;;;;;;;;;5021160;28;20060;-71
2023/06/27 12:56:02;;;;;;;0.20;0.20;;;;;;;;;;5023605;28;20198;-71
2023/06/27 12:58:29;;;;;;;0.20;0.20;;;;;;;;;;5018027;28;20056;-72
2023/06/27 13:00:57;;;;;;;1.50;1.45;;;;;;;;;;5019559;28;20685;-72
2023/06/27 13:03:23;;;;;;;0.20;0.20;;;;;;;;;;5023439;28;20066;-72
2023/06/27 13:05:50;;;;;;;0.30;0.20;;;;;;;;;;5018508;28;20180;-71
2023/06/27 13:08:17;;;;;;;0.20;0.20;;;;;;;;;;5012839;28;20050;-71
2023/06/27 13:10:46;;;;;;;0.20;0.20;;;;;;;;;;5015701;28;20042;-71
2023/06/27 13:13:12;;;;;;;0.20;0.20;;;;;;;;;;5021392;28;20054;-72
2023/06/27 13:18:14;;;;;;;0.45;0.45;;;;;;;;;;5980765;22;20053;-73
2023/06/27 13:20:40;;;;;;;0.20;0.20;;;;;;;;;;5012938;28;20580;-75
2023/06/27 13:23:07;;;;;;;0.20;0.20;;;;;;;;;;5017290;28;20046;-74
2023/06/27 13:25:34;;;;;;;0.20;0.20;;;;;;;;;;5003824;28;20141;-74
2023/06/27 13:28:00;;;;;;;1.30;1.20;;;;;;;;;;5017389;28;20189;-74
2023/06/27 13:30:28;;;;;;;0.20;0.20;;;;;;;;;;5023956;28;20148;-74
2023/06/27 13:32:54;;;;;;;0.20;0.20;;;;;;;;;;5019143;28;20057;-72
2023/06/27 13:35:22;;;;;;;0.20;0.20;;;;;;;;;;5023183;28;20777;-75
2023/06/27 13:43:11;;;;;;;0.47;0.47;;;;;;;;;;5782713;22;20588;-73
2023/06/27 13:48:22;;;;;;;0.15;0.15;;;;;;;;;;6112419;23;20040;-73
2023/06/27 13:50:49;;;;;;;0.13;0.13;;;;;;;;;;5037749;28;20088;-75
2023/06/27 13:53:16;;;;;;;0.30;0.30;;;;;;;;;;5038832;28;20056;-75
2023/06/27 13:55:42;;;;;;;0.22;0.22;;;;;;;;;;5036303;28;20053;-75
2023/06/27 13:58:09;;;;;;;0.55;0.30;;;;;;;;;;5020617;28;20592;-74
2023/06/27 14:00:35;;;;;;;0.32;0.20;;;;;;;;;;5013051;28;20060;-74
2023/06/27 14:03:02;;;;;;;0.15;0.15;;;;;;;;;;5015133;28;20054;-74
2023/06/27 14:05:28;;;;;;;0.20;0.20;;;;;;;;;;5019720;28;20054;-75
2023/06/27 14:07:57;;;;;;;0.38;0.20;;;;;;;;;;5018574;28;20140;-76
2023/06/27 14:10:23;;;;;;;0.20;0.20;;;;;;;;;;5022006;28;20087;-75
2023/06/27 14:12:50;;;;;;;0.20;0.20;;;;;;;;;;5020550;28;20990;-75
2023/06/27 14:15:16;;;;;;;0.20;0.20;;;;;;;;;;5017360;28;20501;-74
2023/06/27 14:17:43;;;;;;;0.22;0.22;;;;;;;;;;5008751;28;20979;-74
2023/06/27 14:20:18;;;;;;;0.28;0.20;;;;;;;;;;5023730;28;20065;-74
2023/06/27 14:22:45;;;;;;;0.20;0.20;;;;;;;;;;5021100;28;20077;-75
2023/06/27 14:25:11;;;;;;;0.28;0.28;;;;;;;;;;5018771;28;20058;-75
2023/06/27 14:27:41;;;;;;;0.20;0.20;;;;;;;;;;5024115;28;20053;-76
2023/06/27 14:30:07;;;;;;;0.30;0.30;;;;;;;;;;5021362;28;20046;-76
2023/06/27 14:32:37;;;;;;;0.20;0.20;;;;;;;;;;5023355;28;20054;-74
2023/06/27 14:35:04;;;;;;;0.20;0.20;;;;;;;;;;5024285;28;20058;-77
2023/06/27 14:37:30;;;;;;;2.90;0.30;;;;;;;;;;5020025;28;20050;-77
2023/06/27 14:39:57;;;;;;;0.25;0.25;;;;;;;;;;5026407;28;20057;-74
2023/06/27 14:42:23;;;;;;;0.20;0.20;;;;;;;;;;5021853;28;20876;-75
2023/06/27 14:44:50;;;;;;;1.17;0.60;;;;;;;;;;5024321;28;20050;-76
2023/06/27 14:47:16;;;;;;;0.20;0.20;;;;;;;;;;5023664;28;20149;-75
2023/06/27 14:49:43;;;;;;;0.40;0.40;;;;;;;;;;5017926;28;20129;-76
2023/06/27 14:52:09;;;;;;;0.20;0.20;;;;;;;;;;5025318;28;20480;-73
2023/06/27 14:54:36;;;;;;;0.30;0.30;;;;;;;;;;5027205;28;20053;-75
2023/06/27 14:57:02;;;;;;;0.28;0.28;;;;;;;;;;5024978;28;20050;-74
2023/06/27 14:59:32;;;;;;;;;;;;;;;;;;5023525;28;20058;-74
2023/06/27 15:01:58;;;;;;;0.68;0.57;;;;;;;;;;5024377;28;46443;-74
2023/06/27 15:04:25;;;;;;;0.20;0.20;;;;;;;;;;5007450;28;20050;-75
2023/06/27 15:06:53;;;;;;;0.22;0.22;;;;;;;;;;5010803;28;21045;-74
2023/06/27 15:09:20;;;;;;;0.50;0.28;;;;;;;;;;5023654;28;20398;-74
2023/06/27 15:11:48;;;;;;;0.30;0.30;;;;;;;;;;5026056;28;20061;-76
2023/06/27 15:14:14;;;;;;;0.20;0.20;;;;;;;;;;5027154;28;20576;-75
2023/06/27 15:16:41;;;;;;;0.20;0.20;;;;;;;;;;5023788;28;20093;-75
2023/06/27 15:19:07;;;;;;;0.20;0.20;;;;;;;;;;5023375;28;20145;-74
2023/06/27 15:21:34;;;;;;;0.20;0.20;;;;;;;;;;5025572;28;20078;-74